sensor_id;sensor_type;location;lat;lon;timestamp;P1;durP1;ratioP1;P2;durP2;ratioP2
4096;SDS011;2062;50.694;7.246;2023-05-16T00:01:09;14.07;;;6.28;;
4096;SDS011;2062;50.694;7.246;2023-05-16T00:03:36;10.88;;;5.57;;
4096;SDS011;2062;50.694;7.246;2023-05-16T00:06:03;14.27;;;6.25;;
4096;SDS011;2062;50.694;7.246;2023-05-16T00:08:30;14.30;;;6.63;;
4096;SDS011;2062;50.694;7.246;2023-05-16T00:10:57;16.58;;;6.65;;
4096;SDS011;2062;50.694;7.246;2023-05-16T00:13:23;13.65;;;6.32;;
4096;SDS011;2062;50.694;7.246;2023-05-16T00:15:50;14.00;;;6.55;;
4096;SDS011;2062;50.694;7.246;2023-05-16T00:18:20;17.05;;;7.00;;
4096;SDS011;2062;50.694;7.246;2023-05-16T00:20:47;18.13;;;6.97;;
4096;SDS011;2062;50.694;7.246;2023-05-16T00:23:14;15.73;;;6.65;;
4096;SDS011;2062;50.694;7.246;2023-05-16T00:25:41;14.30;;;6.68;;
4096;SDS011;2062;50.694;7.246;2023-05-16T00:28:08;17.17;;;6.10;;
4096;SDS011;2062;50.694;7.246;2023-05-16T00:30:35;13.25;;;6.28;;
4096;SDS011;2062;50.694;7.246;2023-05-16T00:33:02;17.40;;;6.13;;
4096;SDS011;2062;50.694;7.246;2023-05-16T00:35:30;18.77;;;6.47;;
4096;SDS011;2062;50.694;7.246;2023-05-16T00:37:57;14.48;;;5.72;;
4096;SDS011;2062;50.694;7.246;2023-05-16T00:40:24;10.75;;;5.47;;
4096;SDS011;2062;50.694;7.246;2023-05-16T00:42:50;12.95;;;5.88;;
4096;SDS011;2062;50.694;7.246;2023-05-16T00:45:17;14.77;;;5.53;;
4096;SDS011;2062;50.694;7.246;2023-05-16T00:47:44;11.80;;;5.20;;
4096;SDS011;2062;50.694;7.246;2023-05-16T00:50:11;11.63;;;5.75;;
4096;SDS011;2062;50.694;7.246;2023-05-16T00:52:39;13.57;;;5.15;;
4096;SDS011;2062;50.694;7.246;2023-05-16T00:55:06;10.88;;;5.35;;
4096;SDS011;2062;50.694;7.246;2023-05-16T00:57:35;13.10;;;5.80;;
4096;SDS011;2062;50.694;7.246;2023-05-16T01:00:02;10.48;;;5.63;;
4096;SDS011;2062;50.694;7.246;2023-05-16T01:02:30;12.07;;;5.40;;
4096;SDS011;2062;50.694;7.246;2023-05-16T01:04:59;11.43;;;5.35;;
4096;SDS011;2062;50.694;7.246;2023-05-16T01:07:27;10.52;;;5.30;;
4096;SDS011;2062;50.694;7.246;2023-05-16T01:09:56;10.50;;;5.57;;
4096;SDS011;2062;50.694;7.246;2023-05-16T01:12:26;10.88;;;5.97;;
4096;SDS011;2062;50.694;7.246;2023-05-16T01:15:03;10.20;;;5.63;;
4096;SDS011;2062;50.694;7.246;2023-05-16T01:17:35;11.35;;;5.22;;
4096;SDS011;2062;50.694;7.246;2023-05-16T01:20:10;10.82;;;5.47;;
4096;SDS011;2062;50.694;7.246;2023-05-16T01:22:49;9.93;;;4.53;;
4096;SDS011;2062;50.694;7.246;2023-05-16T01:25:35;7.80;;;3.75;;
4096;SDS011;2062;50.694;7.246;2023-05-16T01:28:12;8.20;;;4.00;;
4096;SDS011;2062;50.694;7.246;2023-05-16T01:30:40;8.70;;;3.78;;
4096;SDS011;2062;50.694;7.246;2023-05-16T01:33:07;8.88;;;3.83;;
4096;SDS011;2062;50.694;7.246;2023-05-16T01:35:34;7.50;;;3.47;;
4096;SDS011;2062;50.694;7.246;2023-05-16T01:38:07;8.27;;;4.25;;
4096;SDS011;2062;50.694;7.246;2023-05-16T01:40:41;8.75;;;4.15;;
4096;SDS011;2062;50.694;7.246;2023-05-16T01:43:16;8.20;;;4.13;;
4096;SDS011;2062;50.694;7.246;2023-05-16T01:45:46;8.38;;;4.47;;
4096;SDS011;2062;50.694;7.246;2023-05-16T01:48:20;10.27;;;4.90;;
4096;SDS011;2062;50.694;7.246;2023-05-16T01:50:51;10.25;;;5.25;;
4096;SDS011;2062;50.694;7.246;2023-05-16T01:53:22;11.23;;;5.13;;
4096;SDS011;2062;50.694;7.246;2023-05-16T01:55:53;10.00;;;5.05;;
4096;SDS011;2062;50.694;7.246;2023-05-16T01:58:24;10.95;;;5.70;;
4096;SDS011;2062;50.694;7.246;2023-05-16T02:00:54;10.73;;;5.50;;
4096;SDS011;2062;50.694;7.246;2023-05-16T02:03:25;10.52;;;5.63;;
4096;SDS011;2062;50.694;7.246;2023-05-16T02:05:52;11.65;;;5.80;;
4096;SDS011;2062;50.694;7.246;2023-05-16T02:08:19;13.95;;;6.63;;
4096;SDS011;2062;50.694;7.246;2023-05-16T02:10:46;11.85;;;5.85;;
4096;SDS011;2062;50.694;7.246;2023-05-16T02:13:13;13.27;;;6.30;;
4096;SDS011;2062;50.694;7.246;2023-05-16T02:15:41;12.02;;;5.90;;
4096;SDS011;2062;50.694;7.246;2023-05-16T02:18:07;10.43;;;5.35;;
4096;SDS011;2062;50.694;7.246;2023-05-16T02:20:35;9.27;;;4.53;;
4096;SDS011;2062;50.694;7.246;2023-05-16T02:23:02;10.00;;;4.75;;
4096;SDS011;2062;50.694;7.246;2023-05-16T02:25:28;9.77;;;4.43;;
4096;SDS011;2062;50.694;7.246;2023-05-16T02:27:55;7.93;;;3.88;;
4096;SDS011;2062;50.694;7.246;2023-05-16T02:30:22;7.95;;;3.70;;
4096;SDS011;2062;50.694;7.246;2023-05-16T02:32:50;6.70;;;3.13;;
4096;SDS011;2062;50.694;7.246;2023-05-16T02:35:18;7.30;;;3.20;;
4096;SDS011;2062;50.694;7.246;2023-05-16T02:37:45;9.10;;;3.90;;
4096;SDS011;2062;50.694;7.246;2023-05-16T02:40:12;7.00;;;3.08;;
4096;SDS011;2062;50.694;7.246;2023-05-16T02:42:39;7.13;;;3.42;;
4096;SDS011;2062;50.694;7.246;2023-05-16T02:45:06;8.52;;;3.38;;
4096;SDS011;2062;50.694;7.246;2023-05-16T02:47:34;9.73;;;4.30;;
4096;SDS011;2062;50.694;7.246;2023-05-16T02:50:03;10.60;;;4.47;;
4096;SDS011;2062;50.694;7.246;2023-05-16T02:52:30;11.80;;;4.43;;
4096;SDS011;2062;50.694;7.246;2023-05-16T02:54:57;9.23;;;4.05;;
4096;SDS011;2062;50.694;7.246;2023-05-16T02:57:24;8.60;;;3.90;;
4096;SDS011;2062;50.694;7.246;2023-05-16T02:59:51;9.07;;;3.97;;
4096;SDS011;2062;50.694;7.246;2023-05-16T03:02:18;8.60;;;3.43;;
4096;SDS011;2062;50.694;7.246;2023-05-16T03:04:44;7.53;;;3.38;;
4096;SDS011;2062;50.694;7.246;2023-05-16T03:07:12;7.72;;;3.40;;
4096;SDS011;2062;50.694;7.246;2023-05-16T03:09:40;6.50;;;2.85;;
4096;SDS011;2062;50.694;7.246;2023-05-16T03:12:07;6.80;;;3.15;;
4096;SDS011;2062;50.694;7.246;2023-05-16T03:14:34;8.97;;;3.60;;
4096;SDS011;2062;50.694;7.246;2023-05-16T03:17:01;11.30;;;4.22;;
4096;SDS011;2062;50.694;7.246;2023-05-16T03:19:28;9.40;;;3.80;;
4096;SDS011;2062;50.694;7.246;2023-05-16T03:21:55;7.90;;;3.80;;
4096;SDS011;2062;50.694;7.246;2023-05-16T03:24:23;8.55;;;4.00;;
4096;SDS011;2062;50.694;7.246;2023-05-16T03:26:50;7.73;;;3.47;;
4096;SDS011;2062;50.694;7.246;2023-05-16T03:29:17;7.72;;;3.80;;
4096;SDS011;2062;50.694;7.246;2023-05-16T03:31:43;8.60;;;4.40;;
4096;SDS011;2062;50.694;7.246;2023-05-16T03:34:10;8.57;;;3.55;;
4096;SDS011;2062;50.694;7.246;2023-05-16T03:36:37;7.50;;;3.15;;
4096;SDS011;2062;50.694;7.246;2023-05-16T03:39:06;7.40;;;3.23;;
4096;SDS011;2062;50.694;7.246;2023-05-16T03:41:34;7.20;;;3.13;;
4096;SDS011;2062;50.694;7.246;2023-05-16T03:44:01;6.35;;;3.30;;
4096;SDS011;2062;50.694;7.246;2023-05-16T03:46:28;8.07;;;3.15;;
4096;SDS011;2062;50.694;7.246;2023-05-16T03:48:55;6.70;;;2.95;;
4096;SDS011;2062;50.694;7.246;2023-05-16T03:51:22;8.10;;;3.30;;
4096;SDS011;2062;50.694;7.246;2023-05-16T03:53:48;8.98;;;3.15;;
4096;SDS011;2062;50.694;7.246;2023-05-16T03:56:15;7.05;;;3.40;;
4096;SDS011;2062;50.694;7.246;2023-05-16T03:58:43;8.20;;;3.00;;
4096;SDS011;2062;50.694;7.246;2023-05-16T04:01:10;9.70;;;3.28;;
4096;SDS011;2062;50.694;7.246;2023-05-16T04:03:37;6.10;;;2.73;;
4096;SDS011;2062;50.694;7.246;2023-05-16T04:06:05;8.15;;;3.03;;
4096;SDS011;2062;50.694;7.246;2023-05-16T04:08:32;6.57;;;2.67;;
4096;SDS011;2062;50.694;7.246;2023-05-16T04:10:59;6.95;;;3.13;;
4096;SDS011;2062;50.694;7.246;2023-05-16T04:13:26;7.47;;;2.90;;
4096;SDS011;2062;50.694;7.246;2023-05-16T04:15:54;6.73;;;2.73;;
4096;SDS011;2062;50.694;7.246;2023-05-16T04:18:21;6.90;;;2.90;;
4096;SDS011;2062;50.694;7.246;2023-05-16T04:20:48;9.07;;;2.95;;
4096;SDS011;2062;50.694;7.246;2023-05-16T04:23:15;7.40;;;2.65;;
4096;SDS011;2062;50.694;7.246;2023-05-16T04:25:42;8.35;;;2.88;;
4096;SDS011;2062;50.694;7.246;2023-05-16T04:28:09;11.43;;;2.83;;
4096;SDS011;2062;50.694;7.246;2023-05-16T04:30:36;9.90;;;3.05;;
4096;SDS011;2062;50.694;7.246;2023-05-16T04:33:04;6.15;;;2.63;;
4096;SDS011;2062;50.694;7.246;2023-05-16T04:35:31;9.80;;;2.75;;
4096;SDS011;2062;50.694;7.246;2023-05-16T04:37:58;8.50;;;2.70;;
4096;SDS011;2062;50.694;7.246;2023-05-16T04:40:26;8.03;;;2.47;;
4096;SDS011;2062;50.694;7.246;2023-05-16T04:42:53;7.00;;;2.65;;
4096;SDS011;2062;50.694;7.246;2023-05-16T04:45:19;9.30;;;2.65;;
4096;SDS011;2062;50.694;7.246;2023-05-16T04:47:46;7.57;;;2.70;;
4096;SDS011;2062;50.694;7.246;2023-05-16T04:50:14;6.35;;;2.63;;
4096;SDS011;2062;50.694;7.246;2023-05-16T04:52:42;9.20;;;2.47;;
4096;SDS011;2062;50.694;7.246;2023-05-16T04:55:09;10.00;;;2.50;;
4096;SDS011;2062;50.694;7.246;2023-05-16T04:57:36;9.95;;;2.90;;
4096;SDS011;2062;50.694;7.246;2023-05-16T05:00:03;8.40;;;2.53;;
4096;SDS011;2062;50.694;7.246;2023-05-16T05:02:34;9.43;;;2.58;;
4096;SDS011;2062;50.694;7.246;2023-05-16T05:05:02;12.47;;;2.97;;
4096;SDS011;2062;50.694;7.246;2023-05-16T05:07:30;11.98;;;2.40;;
4096;SDS011;2062;50.694;7.246;2023-05-16T05:09:57;10.75;;;2.80;;
4096;SDS011;2062;50.694;7.246;2023-05-16T05:12:24;7.90;;;2.65;;
4096;SDS011;2062;50.694;7.246;2023-05-16T05:14:51;9.40;;;2.90;;
4096;SDS011;2062;50.694;7.246;2023-05-16T05:17:18;11.90;;;2.97;;
4096;SDS011;2062;50.694;7.246;2023-05-16T05:19:46;9.43;;;3.03;;
4096;SDS011;2062;50.694;7.246;2023-05-16T05:22:13;9.93;;;3.10;;
4096;SDS011;2062;50.694;7.246;2023-05-16T05:24:41;10.52;;;3.20;;
4096;SDS011;2062;50.694;7.246;2023-05-16T05:27:08;10.23;;;3.60;;
4096;SDS011;2062;50.694;7.246;2023-05-16T05:29:35;10.97;;;3.47;;
4096;SDS011;2062;50.694;7.246;2023-05-16T05:32:02;10.35;;;3.70;;
4096;SDS011;2062;50.694;7.246;2023-05-16T05:34:29;8.75;;;3.22;;
4096;SDS011;2062;50.694;7.246;2023-05-16T05:36:56;10.57;;;3.50;;
4096;SDS011;2062;50.694;7.246;2023-05-16T05:39:23;10.60;;;3.38;;
4096;SDS011;2062;50.694;7.246;2023-05-16T05:41:51;11.67;;;3.57;;
4096;SDS011;2062;50.694;7.246;2023-05-16T05:44:18;11.40;;;4.00;;
4096;SDS011;2062;50.694;7.246;2023-05-16T05:46:45;12.25;;;4.30;;
4096;SDS011;2062;50.694;7.246;2023-05-16T05:49:12;13.32;;;4.20;;
4096;SDS011;2062;50.694;7.246;2023-05-16T05:51:39;14.25;;;3.80;;
4096;SDS011;2062;50.694;7.246;2023-05-16T05:54:06;10.57;;;3.23;;
4096;SDS011;2062;50.694;7.246;2023-05-16T05:56:33;14.95;;;3.42;;
4096;SDS011;2062;50.694;7.246;2023-05-16T05:59:01;16.08;;;3.42;;
4096;SDS011;2062;50.694;7.246;2023-05-16T06:01:28;12.48;;;3.47;;
4096;SDS011;2062;50.694;7.246;2023-05-16T06:03:55;10.27;;;3.25;;
4096;SDS011;2062;50.694;7.246;2023-05-16T06:06:21;17.33;;;3.47;;
4096;SDS011;2062;50.694;7.246;2023-05-16T06:08:48;13.93;;;4.18;;
4096;SDS011;2062;50.694;7.246;2023-05-16T06:11:15;12.85;;;3.90;;
4096;SDS011;2062;50.694;7.246;2023-05-16T06:13:42;15.15;;;3.30;;
4096;SDS011;2062;50.694;7.246;2023-05-16T06:16:10;13.48;;;3.60;;
4096;SDS011;2062;50.694;7.246;2023-05-16T06:18:37;10.70;;;3.77;;
4096;SDS011;2062;50.694;7.246;2023-05-16T06:21:04;12.80;;;3.72;;
4096;SDS011;2062;50.694;7.246;2023-05-16T06:23:32;12.27;;;3.80;;
4096;SDS011;2062;50.694;7.246;2023-05-16T06:26:00;13.27;;;3.85;;
4096;SDS011;2062;50.694;7.246;2023-05-16T06:28:27;11.35;;;3.92;;
4096;SDS011;2062;50.694;7.246;2023-05-16T06:30:54;10.80;;;3.90;;
4096;SDS011;2062;50.694;7.246;2023-05-16T06:33:22;12.93;;;3.88;;
4096;SDS011;2062;50.694;7.246;2023-05-16T06:35:49;11.82;;;3.60;;
4096;SDS011;2062;50.694;7.246;2023-05-16T06:38:16;11.15;;;3.97;;
4096;SDS011;2062;50.694;7.246;2023-05-16T06:40:44;13.80;;;3.70;;
4096;SDS011;2062;50.694;7.246;2023-05-16T06:43:11;16.03;;;3.70;;
4096;SDS011;2062;50.694;7.246;2023-05-16T06:45:37;12.48;;;3.67;;
4096;SDS011;2062;50.694;7.246;2023-05-16T06:48:05;11.23;;;3.63;;
4096;SDS011;2062;50.694;7.246;2023-05-16T06:50:34;12.20;;;3.30;;
4096;SDS011;2062;50.694;7.246;2023-05-16T06:53:01;14.10;;;3.42;;
4096;SDS011;2062;50.694;7.246;2023-05-16T06:55:29;8.53;;;2.80;;
4096;SDS011;2062;50.694;7.246;2023-05-16T06:57:56;10.30;;;2.63;;
4096;SDS011;2062;50.694;7.246;2023-05-16T07:00:23;11.85;;;3.03;;
4096;SDS011;2062;50.694;7.246;2023-05-16T07:02:51;12.30;;;3.45;;
4096;SDS011;2062;50.694;7.246;2023-05-16T07:05:17;8.93;;;2.72;;
4096;SDS011;2062;50.694;7.246;2023-05-16T07:07:46;10.90;;;2.73;;
4096;SDS011;2062;50.694;7.246;2023-05-16T07:10:13;6.78;;;2.25;;
4096;SDS011;2062;50.694;7.246;2023-05-16T07:12:41;11.23;;;2.67;;
4096;SDS011;2062;50.694;7.246;2023-05-16T07:15:08;12.82;;;2.80;;
4096;SDS011;2062;50.694;7.246;2023-05-16T07:17:37;11.13;;;2.55;;
4096;SDS011;2062;50.694;7.246;2023-05-16T07:20:04;13.97;;;3.40;;
4096;SDS011;2062;50.694;7.246;2023-05-16T07:22:32;11.23;;;3.42;;
4096;SDS011;2062;50.694;7.246;2023-05-16T07:25:00;12.95;;;3.55;;
4096;SDS011;2062;50.694;7.246;2023-05-16T07:27:27;11.45;;;3.72;;
4096;SDS011;2062;50.694;7.246;2023-05-16T07:29:54;7.78;;;3.35;;
4096;SDS011;2062;50.694;7.246;2023-05-16T07:32:21;11.30;;;3.40;;
4096;SDS011;2062;50.694;7.246;2023-05-16T07:34:48;13.35;;;3.35;;
4096;SDS011;2062;50.694;7.246;2023-05-16T07:37:15;10.10;;;3.10;;
4096;SDS011;2062;50.694;7.246;2023-05-16T07:39:42;9.80;;;3.17;;
4096;SDS011;2062;50.694;7.246;2023-05-16T07:42:11;12.20;;;3.35;;
4096;SDS011;2062;50.694;7.246;2023-05-16T07:44:37;14.37;;;3.43;;
4096;SDS011;2062;50.694;7.246;2023-05-16T07:47:04;11.77;;;3.40;;
4096;SDS011;2062;50.694;7.246;2023-05-16T07:49:31;12.85;;;3.10;;
4096;SDS011;2062;50.694;7.246;2023-05-16T07:51:58;10.77;;;2.63;;
4096;SDS011;2062;50.694;7.246;2023-05-16T07:54:25;11.80;;;2.70;;
4096;SDS011;2062;50.694;7.246;2023-05-16T07:56:52;10.63;;;2.27;;
4096;SDS011;2062;50.694;7.246;2023-05-16T07:59:20;8.80;;;2.42;;
4096;SDS011;2062;50.694;7.246;2023-05-16T08:01:47;8.07;;;2.15;;
4096;SDS011;2062;50.694;7.246;2023-05-16T08:04:14;7.47;;;1.98;;
4096;SDS011;2062;50.694;7.246;2023-05-16T08:06:40;7.32;;;1.65;;
4096;SDS011;2062;50.694;7.246;2023-05-16T08:09:07;6.83;;;1.70;;
4096;SDS011;2062;50.694;7.246;2023-05-16T08:11:35;7.45;;;1.60;;
4096;SDS011;2062;50.694;7.246;2023-05-16T08:14:04;9.60;;;1.90;;
4096;SDS011;2062;50.694;7.246;2023-05-16T08:16:32;6.72;;;1.88;;
4096;SDS011;2062;50.694;7.246;2023-05-16T08:18:59;12.88;;;2.05;;
4096;SDS011;2062;50.694;7.246;2023-05-16T08:21:25;8.30;;;1.60;;
4096;SDS011;2062;50.694;7.246;2023-05-16T08:23:52;5.43;;;1.45;;
4096;SDS011;2062;50.694;7.246;2023-05-16T08:26:19;6.50;;;1.45;;
4096;SDS011;2062;50.694;7.246;2023-05-16T08:28:47;4.38;;;0.98;;
4096;SDS011;2062;50.694;7.246;2023-05-16T08:31:14;6.20;;;1.50;;
4096;SDS011;2062;50.694;7.246;2023-05-16T08:33:42;5.30;;;1.30;;
4096;SDS011;2062;50.694;7.246;2023-05-16T08:36:09;8.90;;;1.20;;
4096;SDS011;2062;50.694;7.246;2023-05-16T08:38:36;6.68;;;1.58;;
4096;SDS011;2062;50.694;7.246;2023-05-16T08:41:03;6.50;;;1.08;;
4096;SDS011;2062;50.694;7.246;2023-05-16T08:43:30;8.45;;;1.35;;
4096;SDS011;2062;50.694;7.246;2023-05-16T08:45:59;7.50;;;1.00;;
4096;SDS011;2062;50.694;7.246;2023-05-16T08:48:25;6.68;;;1.20;;
4096;SDS011;2062;50.694;7.246;2023-05-16T08:50:55;5.10;;;1.20;;
4096;SDS011;2062;50.694;7.246;2023-05-16T08:53:24;5.50;;;1.40;;
4096;SDS011;2062;50.694;7.246;2023-05-16T08:55:57;7.32;;;1.50;;
4096;SDS011;2062;50.694;7.246;2023-05-16T08:58:25;6.57;;;1.47;;
4096;SDS011;2062;50.694;7.246;2023-05-16T09:00:54;7.80;;;1.40;;
4096;SDS011;2062;50.694;7.246;2023-05-16T09:03:21;10.80;;;1.60;;
4096;SDS011;2062;50.694;7.246;2023-05-16T09:05:49;9.85;;;1.40;;
4096;SDS011;2062;50.694;7.246;2023-05-16T09:08:18;7.75;;;1.45;;
4096;SDS011;2062;50.694;7.246;2023-05-16T09:10:45;5.47;;;1.00;;
4096;SDS011;2062;50.694;7.246;2023-05-16T09:13:11;10.10;;;1.45;;
4096;SDS011;2062;50.694;7.246;2023-05-16T09:15:39;5.43;;;1.40;;
4096;SDS011;2062;50.694;7.246;2023-05-16T09:18:10;6.65;;;1.30;;
4096;SDS011;2062;50.694;7.246;2023-05-16T09:20:37;4.00;;;1.08;;
4096;SDS011;2062;50.694;7.246;2023-05-16T09:23:10;6.33;;;1.20;;
4096;SDS011;2062;50.694;7.246;2023-05-16T09:25:38;6.65;;;1.27;;
4096;SDS011;2062;50.694;7.246;2023-05-16T09:28:09;5.32;;;1.25;;
4096;SDS011;2062;50.694;7.246;2023-05-16T09:30:37;5.82;;;1.38;;
4096;SDS011;2062;50.694;7.246;2023-05-16T09:33:05;5.28;;;1.27;;
4096;SDS011;2062;50.694;7.246;2023-05-16T09:35:32;6.20;;;1.30;;
4096;SDS011;2062;50.694;7.246;2023-05-16T09:37:59;6.15;;;1.27;;
4096;SDS011;2062;50.694;7.246;2023-05-16T09:40:26;5.85;;;1.45;;
4096;SDS011;2062;50.694;7.246;2023-05-16T09:43:00;7.50;;;1.63;;
4096;SDS011;2062;50.694;7.246;2023-05-16T09:45:29;6.82;;;1.42;;
4096;SDS011;2062;50.694;7.246;2023-05-16T09:47:59;8.50;;;1.80;;
4096;SDS011;2062;50.694;7.246;2023-05-16T09:50:27;6.22;;;1.33;;
4096;SDS011;2062;50.694;7.246;2023-05-16T09:52:55;5.13;;;1.05;;
4096;SDS011;2062;50.694;7.246;2023-05-16T09:55:22;7.03;;;1.20;;
4096;SDS011;2062;50.694;7.246;2023-05-16T09:57:49;6.13;;;1.58;;
4096;SDS011;2062;50.694;7.246;2023-05-16T10:00:17;4.67;;;0.90;;
4096;SDS011;2062;50.694;7.246;2023-05-16T10:02:45;4.97;;;1.00;;
4096;SDS011;2062;50.694;7.246;2023-05-16T10:05:12;4.30;;;1.10;;
4096;SDS011;2062;50.694;7.246;2023-05-16T10:07:40;5.07;;;1.00;;
4096;SDS011;2062;50.694;7.246;2023-05-16T10:10:09;7.35;;;0.90;;
4096;SDS011;2062;50.694;7.246;2023-05-16T10:12:38;7.73;;;0.90;;
4096;SDS011;2062;50.694;7.246;2023-05-16T10:15:07;3.85;;;0.98;;
4096;SDS011;2062;50.694;7.246;2023-05-16T10:17:37;5.25;;;1.05;;
4096;SDS011;2062;50.694;7.246;2023-05-16T10:20:09;6.78;;;1.10;;
4096;SDS011;2062;50.694;7.246;2023-05-16T10:22:40;4.65;;;0.98;;
4096;SDS011;2062;50.694;7.246;2023-05-16T10:25:11;3.97;;;0.87;;
4096;SDS011;2062;50.694;7.246;2023-05-16T10:27:47;5.20;;;0.93;;
4096;SDS011;2062;50.694;7.246;2023-05-16T10:30:15;6.38;;;1.00;;
4096;SDS011;2062;50.694;7.246;2023-05-16T10:32:44;5.78;;;0.70;;
4096;SDS011;2062;50.694;7.246;2023-05-16T10:35:13;5.90;;;1.00;;
4096;SDS011;2062;50.694;7.246;2023-05-16T10:37:39;4.47;;;0.70;;
4096;SDS011;2062;50.694;7.246;2023-05-16T10:40:08;6.57;;;1.33;;
4096;SDS011;2062;50.694;7.246;2023-05-16T10:42:35;4.80;;;0.90;;
4096;SDS011;2062;50.694;7.246;2023-05-16T10:45:08;4.57;;;0.85;;
4096;SDS011;2062;50.694;7.246;2023-05-16T10:47:50;3.88;;;0.90;;
4096;SDS011;2062;50.694;7.246;2023-05-16T10:50:34;4.37;;;0.90;;
4096;SDS011;2062;50.694;7.246;2023-05-16T10:53:14;5.88;;;1.02;;
4096;SDS011;2062;50.694;7.246;2023-05-16T10:55:44;8.02;;;1.17;;
4096;SDS011;2062;50.694;7.246;2023-05-16T10:58:17;8.43;;;1.10;;
4096;SDS011;2062;50.694;7.246;2023-05-16T11:00:48;5.53;;;1.10;;
4096;SDS011;2062;50.694;7.246;2023-05-16T11:03:21;5.60;;;1.13;;
4096;SDS011;2062;50.694;7.246;2023-05-16T11:05:52;6.03;;;1.25;;
4096;SDS011;2062;50.694;7.246;2023-05-16T11:08:19;6.40;;;1.38;;
4096;SDS011;2062;50.694;7.246;2023-05-16T11:10:45;5.18;;;1.30;;
4096;SDS011;2062;50.694;7.246;2023-05-16T11:13:12;5.75;;;1.25;;
4096;SDS011;2062;50.694;7.246;2023-05-16T11:15:43;5.93;;;1.20;;
4096;SDS011;2062;50.694;7.246;2023-05-16T11:18:13;7.75;;;0.93;;
4096;SDS011;2062;50.694;7.246;2023-05-16T11:20:42;5.18;;;1.20;;
4096;SDS011;2062;50.694;7.246;2023-05-16T11:23:18;4.53;;;0.93;;
4096;SDS011;2062;50.694;7.246;2023-05-16T11:25:47;7.03;;;1.20;;
4096;SDS011;2062;50.694;7.246;2023-05-16T11:28:16;4.07;;;1.00;;
4096;SDS011;2062;50.694;7.246;2023-05-16T11:30:44;5.70;;;1.20;;
4096;SDS011;2062;50.694;7.246;2023-05-16T11:33:14;5.93;;;1.70;;
4096;SDS011;2062;50.694;7.246;2023-05-16T11:35:43;5.78;;;1.40;;
4096;SDS011;2062;50.694;7.246;2023-05-16T11:38:16;6.25;;;1.40;;
4096;SDS011;2062;50.694;7.246;2023-05-16T11:40:43;8.13;;;1.10;;
4096;SDS011;2062;50.694;7.246;2023-05-16T11:43:11;6.38;;;1.48;;
4096;SDS011;2062;50.694;7.246;2023-05-16T11:45:44;3.75;;;0.80;;
4096;SDS011;2062;50.694;7.246;2023-05-16T11:48:11;6.97;;;1.10;;
4096;SDS011;2062;50.694;7.246;2023-05-16T11:50:38;6.05;;;1.10;;
4096;SDS011;2062;50.694;7.246;2023-05-16T11:53:06;5.00;;;0.90;;
4096;SDS011;2062;50.694;7.246;2023-05-16T11:55:33;4.30;;;1.00;;
4096;SDS011;2062;50.694;7.246;2023-05-16T11:58:00;6.38;;;1.13;;
4096;SDS011;2062;50.694;7.246;2023-05-16T12:00:28;5.22;;;1.17;;
4096;SDS011;2062;50.694;7.246;2023-05-16T12:02:59;4.72;;;1.10;;
4096;SDS011;2062;50.694;7.246;2023-05-16T12:05:28;4.40;;;1.00;;
4096;SDS011;2062;50.694;7.246;2023-05-16T12:07:56;5.78;;;0.95;;
4096;SDS011;2062;50.694;7.246;2023-05-16T12:10:25;3.95;;;0.90;;
4096;SDS011;2062;50.694;7.246;2023-05-16T12:12:52;4.50;;;0.90;;
4096;SDS011;2062;50.694;7.246;2023-05-16T12:15:20;4.00;;;0.85;;
4096;SDS011;2062;50.694;7.246;2023-05-16T12:17:47;5.93;;;1.17;;
4096;SDS011;2062;50.694;7.246;2023-05-16T12:20:14;4.35;;;0.85;;
4096;SDS011;2062;50.694;7.246;2023-05-16T12:22:42;4.55;;;0.90;;
4096;SDS011;2062;50.694;7.246;2023-05-16T12:25:27;5.38;;;0.98;;
4096;SDS011;2062;50.694;7.246;2023-05-16T12:27:56;3.88;;;0.90;;
4096;SDS011;2062;50.694;7.246;2023-05-16T12:30:25;6.30;;;1.17;;
4096;SDS011;2062;50.694;7.246;2023-05-16T12:32:56;5.40;;;1.08;;
4096;SDS011;2062;50.694;7.246;2023-05-16T12:35:23;5.97;;;1.10;;
4096;SDS011;2062;50.694;7.246;2023-05-16T12:37:50;5.82;;;1.13;;
4096;SDS011;2062;50.694;7.246;2023-05-16T12:40:18;5.43;;;1.20;;
4096;SDS011;2062;50.694;7.246;2023-05-16T12:42:49;3.93;;;1.20;;
4096;SDS011;2062;50.694;7.246;2023-05-16T12:45:17;5.78;;;1.20;;
4096;SDS011;2062;50.694;7.246;2023-05-16T12:47:43;7.80;;;1.30;;
4096;SDS011;2062;50.694;7.246;2023-05-16T12:50:11;4.18;;;1.25;;
4096;SDS011;2062;50.694;7.246;2023-05-16T12:52:47;7.20;;;1.85;;
4096;SDS011;2062;50.694;7.246;2023-05-16T12:55:14;6.10;;;1.80;;
4096;SDS011;2062;50.694;7.246;2023-05-16T12:57:42;6.90;;;1.80;;
4096;SDS011;2062;50.694;7.246;2023-05-16T13:00:14;5.40;;;1.60;;
4096;SDS011;2062;50.694;7.246;2023-05-16T13:02:42;6.13;;;1.75;;
4096;SDS011;2062;50.694;7.246;2023-05-16T13:05:11;5.13;;;1.60;;
4096;SDS011;2062;50.694;7.246;2023-05-16T13:07:38;6.73;;;1.80;;
4096;SDS011;2062;50.694;7.246;2023-05-16T13:10:05;6.10;;;1.55;;
4096;SDS011;2062;50.694;7.246;2023-05-16T13:12:34;5.20;;;1.60;;
4096;SDS011;2062;50.694;7.246;2023-05-16T13:15:01;5.80;;;1.70;;
4096;SDS011;2062;50.694;7.246;2023-05-16T13:17:30;5.18;;;1.90;;
4096;SDS011;2062;50.694;7.246;2023-05-16T13:19:56;6.23;;;1.80;;
4096;SDS011;2062;50.694;7.246;2023-05-16T13:22:23;6.75;;;1.85;;
4096;SDS011;2062;50.694;7.246;2023-05-16T13:24:50;6.38;;;1.73;;
4096;SDS011;2062;50.694;7.246;2023-05-16T13:27:17;4.53;;;1.55;;
4096;SDS011;2062;50.694;7.246;2023-05-16T13:29:44;4.68;;;1.70;;
4096;SDS011;2062;50.694;7.246;2023-05-16T13:32:11;6.90;;;2.00;;
4096;SDS011;2062;50.694;7.246;2023-05-16T13:34:39;6.63;;;1.60;;
4096;SDS011;2062;50.694;7.246;2023-05-16T13:37:06;4.40;;;1.35;;
4096;SDS011;2062;50.694;7.246;2023-05-16T13:39:33;7.10;;;1.40;;
4096;SDS011;2062;50.694;7.246;2023-05-16T13:42:00;7.88;;;1.63;;
4096;SDS011;2062;50.694;7.246;2023-05-16T13:44:27;7.20;;;1.40;;
4096;SDS011;2062;50.694;7.246;2023-05-16T13:46:54;6.13;;;1.17;;
4096;SDS011;2062;50.694;7.246;2023-05-16T13:49:21;4.60;;;1.30;;
4096;SDS011;2062;50.694;7.246;2023-05-16T13:51:50;7.43;;;1.20;;
4096;SDS011;2062;50.694;7.246;2023-05-16T13:54:17;5.20;;;1.25;;
4096;SDS011;2062;50.694;7.246;2023-05-16T13:56:43;5.63;;;1.17;;
4096;SDS011;2062;50.694;7.246;2023-05-16T13:59:10;5.85;;;1.33;;
4096;SDS011;2062;50.694;7.246;2023-05-16T14:01:37;6.43;;;1.20;;
4096;SDS011;2062;50.694;7.246;2023-05-16T14:04:04;4.90;;;1.52;;
4096;SDS011;2062;50.694;7.246;2023-05-16T14:06:31;7.65;;;1.80;;
4096;SDS011;2062;50.694;7.246;2023-05-16T14:08:59;6.17;;;1.60;;
4096;SDS011;2062;50.694;7.246;2023-05-16T14:11:27;6.18;;;1.80;;
4096;SDS011;2062;50.694;7.246;2023-05-16T14:13:54;4.78;;;1.58;;
4096;SDS011;2062;50.694;7.246;2023-05-16T14:16:21;7.55;;;1.98;;
4096;SDS011;2062;50.694;7.246;2023-05-16T14:18:47;7.18;;;2.10;;
4096;SDS011;2062;50.694;7.246;2023-05-16T14:21:14;5.57;;;1.77;;
4096;SDS011;2062;50.694;7.246;2023-05-16T14:23:42;3.67;;;1.10;;
4096;SDS011;2062;50.694;7.246;2023-05-16T14:26:10;4.28;;;1.42;;
4096;SDS011;2062;50.694;7.246;2023-05-16T14:28:37;5.15;;;1.20;;
4096;SDS011;2062;50.694;7.246;2023-05-16T14:31:04;4.38;;;1.10;;
4096;SDS011;2062;50.694;7.246;2023-05-16T14:33:31;7.43;;;1.40;;
4096;SDS011;2062;50.694;7.246;2023-05-16T14:35:58;5.50;;;1.20;;
4096;SDS011;2062;50.694;7.246;2023-05-16T14:38:24;5.90;;;1.00;;
4096;SDS011;2062;50.694;7.246;2023-05-16T14:40:52;4.38;;;0.93;;
4096;SDS011;2062;50.694;7.246;2023-05-16T14:43:20;5.57;;;1.40;;
4096;SDS011;2062;50.694;7.246;2023-05-16T14:45:47;3.90;;;0.90;;
4096;SDS011;2062;50.694;7.246;2023-05-16T14:48:14;3.70;;;0.93;;
4096;SDS011;2062;50.694;7.246;2023-05-16T14:50:41;5.47;;;1.10;;
4096;SDS011;2062;50.694;7.246;2023-05-16T14:53:08;4.35;;;0.90;;
4096;SDS011;2062;50.694;7.246;2023-05-16T14:55:35;3.67;;;0.90;;
4096;SDS011;2062;50.694;7.246;2023-05-16T14:58:02;3.57;;;1.00;;
4096;SDS011;2062;50.694;7.246;2023-05-16T15:00:31;3.53;;;1.00;;
4096;SDS011;2062;50.694;7.246;2023-05-16T15:02:58;3.83;;;1.00;;
4096;SDS011;2062;50.694;7.246;2023-05-16T15:05:24;3.53;;;1.00;;
4096;SDS011;2062;50.694;7.246;2023-05-16T15:07:53;3.50;;;0.90;;
4096;SDS011;2062;50.694;7.246;2023-05-16T15:10:20;5.20;;;0.90;;
4096;SDS011;2062;50.694;7.246;2023-05-16T15:12:47;7.68;;;1.17;;
4096;SDS011;2062;50.694;7.246;2023-05-16T15:15:14;6.15;;;1.20;;